createdAt,value
2022-10-29T04:30:38.921Z,1005.72
2022-10-29T04:31:38.664Z,1005.59
2022-10-29T04:32:38.877Z,1005.55
2022-10-29T04:33:38.610Z,1005.51
2022-10-29T04:34:38.672Z,1005.51
2022-10-29T04:35:38.620Z,1005.40
2022-10-29T04:36:38.646Z,1005.39
2022-10-29T04:37:38.664Z,1005.37
2022-10-29T04:38:38.565Z,1005.44
2022-10-29T04:39:38.545Z,1005.43
2022-10-29T04:40:38.524Z,1005.46
2022-10-29T04:41:38.616Z,1005.50
2022-10-29T04:42:38.518Z,1005.49
2022-10-29T04:43:38.462Z,1005.52
2022-10-29T04:44:38.573Z,1005.48
2022-10-29T04:45:38.558Z,1005.47
2022-10-29T04:46:38.442Z,1005.49
2022-10-29T04:47:38.461Z,1005.55
2022-10-29T04:48:38.560Z,1005.48
2022-10-29T04:49:38.429Z,1005.50
2022-10-29T04:50:38.394Z,1005.46
2022-10-29T04:51:38.433Z,1005.47
2022-10-29T04:52:38.383Z,1005.48
2022-10-29T04:53:38.389Z,1005.47
2022-10-29T04:54:38.371Z,1005.48
2022-10-29T04:55:38.366Z,1005.44
2022-10-29T04:56:38.485Z,1005.49
2022-10-29T04:57:38.361Z,1005.48
2022-10-29T04:58:38.314Z,1005.50
2022-10-29T04:59:38.306Z,1005.45
2022-10-29T05:00:38.374Z,1005.44
2022-10-29T05:01:38.305Z,1005.52
2022-10-29T05:02:38.278Z,1005.40
2022-10-29T05:03:38.248Z,1005.36
2022-10-29T05:04:38.236Z,1005.33
2022-10-29T05:05:38.287Z,1005.25
2022-10-29T05:06:38.221Z,1005.27
2022-10-29T05:07:38.226Z,1005.25
2022-10-29T05:08:38.208Z,1005.26
2022-10-29T05:09:38.205Z,1005.24
2022-10-29T05:10:38.222Z,1005.21
2022-10-29T05:11:38.169Z,1005.14
2022-10-29T05:12:38.182Z,1005.11
2022-10-29T05:13:38.305Z,1005.08
2022-10-29T05:14:38.150Z,1005.10
2022-10-29T05:15:38.200Z,1005.06
2022-10-29T05:16:38.137Z,1005.01
2022-10-29T05:17:38.168Z,1004.98
2022-10-29T05:18:38.101Z,1005.01
2022-10-29T05:19:38.103Z,1004.99
2022-10-29T05:20:38.100Z,1005.02
2022-10-29T05:21:38.161Z,1004.97
2022-10-29T05:22:38.041Z,1004.97
2022-10-29T05:23:38.097Z,1004.93
2022-10-29T05:24:38.027Z,1004.90
2022-10-29T05:25:38.039Z,1004.92
2022-10-29T05:26:38.087Z,1004.95
2022-10-29T05:27:38.008Z,1004.97
2022-10-29T05:28:38.017Z,1004.93
2022-10-29T05:29:38.007Z,1004.94
2022-10-29T05:30:38.027Z,1004.95
2022-10-29T05:31:37.947Z,1005.01
2022-10-29T05:32:38.089Z,1004.92
2022-10-29T05:33:37.958Z,1004.91
2022-10-29T05:34:40.648Z,1004.88
2022-10-29T05:35:37.910Z,1004.88
2022-10-29T05:36:37.914Z,1004.91
2022-10-29T05:37:37.884Z,1004.91
2022-10-29T05:38:37.915Z,1004.83
2022-10-29T05:39:37.875Z,1004.84
2022-10-29T05:40:37.898Z,1004.86
2022-10-29T05:41:37.893Z,1004.91
2022-10-29T05:42:37.853Z,1004.84
2022-10-29T05:43:37.895Z,1004.94
2022-10-29T05:44:37.802Z,1004.93
2022-10-29T05:45:37.798Z,1004.95
2022-10-29T05:46:37.927Z,1004.93
2022-10-29T05:47:37.772Z,1004.95
2022-10-29T05:48:37.801Z,1004.94
2022-10-29T05:49:37.793Z,1004.96
2022-10-29T05:50:37.750Z,1004.93
2022-10-29T05:51:37.808Z,1004.91
2022-10-29T05:52:37.753Z,1004.90
2022-10-29T05:53:37.750Z,1004.91
2022-10-29T05:54:37.789Z,1004.92
2022-10-29T05:55:37.726Z,1004.97
2022-10-29T05:56:37.754Z,1005.02
2022-10-29T05:57:37.664Z,1005.02
2022-10-29T05:58:38.290Z,1005.00
2022-10-29T05:59:37.718Z,1004.94
2022-10-29T06:00:39.235Z,1004.97
2022-10-29T06:01:37.800Z,1004.98
2022-10-29T06:02:37.709Z,1005.01
2022-10-29T06:03:37.740Z,1005.10
2022-10-29T06:04:37.587Z,1005.19
2022-10-29T06:05:37.632Z,1005.16
2022-10-29T06:06:37.632Z,1005.15
2022-10-29T06:07:37.566Z,1005.10
2022-10-29T06:08:37.573Z,1005.13
2022-10-29T06:09:37.656Z,1005.11
2022-10-29T06:10:37.533Z,1005.14
2022-10-29T06:11:37.513Z,1005.10
2022-10-29T06:12:37.501Z,1005.04
2022-10-29T06:13:37.498Z,1005.06
2022-10-29T06:14:37.578Z,1005.04
2022-10-29T06:15:37.587Z,1005.05
2022-10-29T06:16:37.483Z,1005.05
2022-10-29T06:17:37.743Z,1005.04
2022-10-29T06:18:37.615Z,1005.08
2022-10-29T06:19:37.480Z,1005.08
2022-10-29T06:20:37.814Z,1005.11
2022-10-29T06:21:37.432Z,1005.09
2022-10-29T06:22:37.422Z,1005.12
2022-10-29T06:23:37.412Z,1005.14
2022-10-29T06:24:37.394Z,1005.11
2022-10-29T06:25:37.376Z,1005.13
2022-10-29T06:26:37.379Z,1005.06
2022-10-29T06:27:37.352Z,1004.93
2022-10-29T06:28:37.355Z,1004.88
2022-10-29T06:29:37.337Z,1004.84
2022-10-29T06:30:37.617Z,1004.76
2022-10-29T06:31:37.311Z,1004.70
2022-10-29T06:32:37.284Z,1004.69
2022-10-29T06:33:37.294Z,1004.68
2022-10-29T06:34:37.270Z,1004.64
2022-10-29T06:35:37.259Z,1004.65
2022-10-29T06:36:37.450Z,1004.73
2022-10-29T06:37:37.251Z,1004.79
2022-10-29T06:38:37.255Z,1004.88
2022-10-29T06:39:37.212Z,1004.96
2022-10-29T06:40:37.246Z,1004.97
2022-10-29T06:41:37.194Z,1004.97
2022-10-29T06:42:37.184Z,1005.03
2022-10-29T06:43:37.168Z,1004.99
2022-10-29T06:44:37.187Z,1004.88
2022-10-29T06:45:37.163Z,1004.92
2022-10-29T06:46:37.243Z,1004.92
2022-10-29T06:47:37.129Z,1004.92
2022-10-29T06:48:37.123Z,1004.86
2022-10-29T06:49:37.156Z,1004.83
2022-10-29T06:50:37.095Z,1004.79
2022-10-29T06:51:37.103Z,1004.87
2022-10-29T06:52:37.107Z,1004.84
2022-10-29T06:53:37.072Z,1004.87
2022-10-29T06:54:37.064Z,1004.90
2022-10-29T06:55:37.193Z,1004.91
2022-10-29T06:56:37.089Z,1004.93
2022-10-29T06:57:37.030Z,1004.94
2022-10-29T06:58:37.121Z,1004.89
2022-10-29T06:59:37.016Z,1004.91
2022-10-29T07:00:37.121Z,1004.90
2022-10-29T07:01:37.039Z,1004.86
2022-10-29T07:02:36.995Z,1004.90
2022-10-29T07:03:36.995Z,1004.90
2022-10-29T07:04:36.978Z,1004.84
2022-10-29T07:05:37.050Z,1004.85
2022-10-29T07:06:36.914Z,1005.01
2022-10-29T07:07:36.921Z,1005.02
2022-10-29T07:08:36.897Z,1005.05
2022-10-29T07:09:36.915Z,1005.05
2022-10-29T07:10:36.902Z,1005.09
2022-10-29T07:11:36.894Z,1005.13
2022-10-29T07:12:36.903Z,1005.12
2022-10-29T07:13:36.855Z,1005.13
2022-10-29T07:14:36.847Z,1005.17
2022-10-29T07:15:36.865Z,1005.11
2022-10-29T07:16:36.832Z,1005.16
2022-10-29T07:17:36.803Z,1005.16
2022-10-29T07:18:36.840Z,1005.15
2022-10-29T07:19:36.778Z,1005.12
2022-10-29T07:20:36.810Z,1005.06
2022-10-29T07:21:36.766Z,1005.06
2022-10-29T07:22:36.809Z,1005.03
2022-10-29T07:23:36.743Z,1005.10
2022-10-29T07:24:36.776Z,1005.11
2022-10-29T07:25:36.808Z,1005.14
2022-10-29T07:26:36.720Z,1005.11
2022-10-29T07:27:36.772Z,1005.15
2022-10-29T07:28:36.699Z,1005.16
2022-10-29T07:29:36.671Z,1005.16
2022-10-29T07:30:36.679Z,1005.21
2022-10-29T07:31:36.699Z,1005.28
2022-10-29T07:32:36.683Z,1005.33
2022-10-29T07:33:36.703Z,1005.36
2022-10-29T07:34:36.635Z,1005.30
2022-10-29T07:35:36.658Z,1005.35
2022-10-29T07:36:36.638Z,1005.34
2022-10-29T07:37:36.591Z,1005.34
2022-10-29T07:38:36.622Z,1005.44
2022-10-29T07:39:36.567Z,1005.42
2022-10-29T07:40:36.631Z,1005.38
2022-10-29T07:41:36.568Z,1005.39
2022-10-29T07:42:36.552Z,1005.38
2022-10-29T07:43:36.558Z,1005.34
2022-10-29T07:44:36.525Z,1005.36
2022-10-29T07:45:36.513Z,1005.39
2022-10-29T07:46:36.545Z,1005.40
2022-10-29T07:47:36.477Z,1005.43
2022-10-29T07:48:36.471Z,1005.40
2022-10-29T07:49:36.487Z,1005.39
2022-10-29T07:50:36.461Z,1005.39
2022-10-29T07:51:36.456Z,1005.39
2022-10-29T07:52:36.471Z,1005.43
2022-10-29T07:53:36.485Z,1005.46
2022-10-29T07:54:36.465Z,1005.48
2022-10-29T07:55:36.454Z,1005.45
2022-10-29T07:56:36.433Z,1005.44
2022-10-29T07:57:36.372Z,1005.40
2022-10-29T07:58:36.436Z,1005.36
2022-10-29T07:59:36.437Z,1005.31
2022-10-29T08:00:36.343Z,1005.28
2022-10-29T08:01:36.474Z,1005.29
2022-10-29T08:02:36.337Z,1005.27
2022-10-29T08:03:36.314Z,1005.31
2022-10-29T08:04:36.315Z,1005.34
2022-10-29T08:05:36.285Z,1005.34
2022-10-29T08:06:36.301Z,1005.38
2022-10-29T08:07:36.358Z,1005.40
2022-10-29T08:08:36.255Z,1005.37
2022-10-29T08:09:36.267Z,1005.37
2022-10-29T08:10:36.256Z,1005.34
2022-10-29T08:11:36.292Z,1005.35
2022-10-29T08:12:36.261Z,1005.34
2022-10-29T08:13:36.402Z,1005.37
2022-10-29T08:14:36.225Z,1005.35
2022-10-29T08:15:36.177Z,1005.35
2022-10-29T08:16:36.192Z,1005.35
2022-10-29T08:17:36.177Z,1005.39
2022-10-29T08:18:36.195Z,1005.37
2022-10-29T08:19:36.231Z,1005.36
2022-10-29T08:20:36.156Z,1005.31
2022-10-29T08:21:36.146Z,1005.34
2022-10-29T08:22:36.127Z,1005.32
2022-10-29T08:23:36.188Z,1005.27
2022-10-29T08:24:36.079Z,1005.20
2022-10-29T08:25:36.115Z,1005.19
2022-10-29T08:26:36.104Z,1005.11
2022-10-29T08:27:36.051Z,1005.08
2022-10-29T08:28:36.091Z,1005.01
2022-10-29T08:29:36.040Z,1005.03
2022-10-29T08:30:36.027Z,1005.00
2022-10-29T08:31:36.045Z,1004.97
2022-10-29T08:32:36.045Z,1004.98
2022-10-29T08:33:35.979Z,1005.02
2022-10-29T08:34:35.984Z,1004.98
2022-10-29T08:35:35.970Z,1005.02
2022-10-29T08:36:35.944Z,1005.08
2022-10-29T08:37:35.983Z,1005.17
2022-10-29T08:38:35.968Z,1005.17
2022-10-29T08:39:35.910Z,1005.13
2022-10-29T08:40:35.909Z,1005.11
2022-10-29T08:41:35.903Z,1005.14
2022-10-29T08:42:35.947Z,1005.11
2022-10-29T08:43:35.861Z,1005.20
2022-10-29T08:44:35.869Z,1005.13
2022-10-29T08:45:35.896Z,1005.05
2022-10-29T08:46:35.859Z,1005.05
2022-10-29T08:47:35.824Z,1005.07
2022-10-29T08:48:35.829Z,1005.08
2022-10-29T08:49:35.802Z,1005.05
2022-10-29T08:50:35.809Z,1005.02
2022-10-29T08:51:35.788Z,1005.01
2022-10-29T08:52:35.772Z,1005.01
2022-10-29T08:53:35.800Z,1004.99
2022-10-29T08:54:35.965Z,1004.99
2022-10-29T09:01:25.958Z,1005.02
2022-10-29T09:02:25.863Z,1004.97
2022-10-29T09:03:25.782Z,1005.06
2022-10-29T09:04:25.740Z,1005.07
2022-10-29T09:05:25.755Z,1005.05
2022-10-29T09:06:25.742Z,1005.02
2022-10-29T09:07:25.728Z,1005.08
2022-10-29T09:08:25.744Z,1005.04
2022-10-29T09:09:25.683Z,1005.00
2022-10-29T09:10:25.672Z,1005.03
2022-10-29T09:11:25.658Z,1005.00
2022-10-29T09:12:25.650Z,1004.91
2022-10-29T09:13:25.658Z,1004.98
2022-10-29T09:14:25.646Z,1005.01
2022-10-29T09:15:25.633Z,1005.00
2022-10-29T09:16:25.617Z,1004.97
2022-10-29T09:17:25.585Z,1004.95
2022-10-29T09:18:25.603Z,1004.94
2022-10-29T09:19:25.608Z,1004.93
2022-10-29T09:20:25.587Z,1004.98
2022-10-29T09:21:25.546Z,1004.97
2022-10-29T09:22:25.528Z,1004.94
2022-10-29T09:23:25.565Z,1005.03
2022-10-29T09:24:25.568Z,1005.05
2022-10-29T09:25:25.515Z,1005.11
2022-10-29T09:26:25.530Z,1005.06
2022-10-29T09:27:25.476Z,1005.03
2022-10-29T09:28:25.463Z,1004.97
2022-10-29T09:29:25.503Z,1005.05
2022-10-29T09:30:25.475Z,1005.00
2022-10-29T09:31:25.434Z,1004.98
2022-10-29T09:32:25.447Z,1004.94
2022-10-29T09:33:25.444Z,1004.99
2022-10-29T09:34:25.423Z,1004.93
2022-10-29T09:35:25.406Z,1005.00
2022-10-29T09:36:25.380Z,1005.02
2022-10-29T09:37:25.372Z,1005.05
2022-10-29T09:38:25.365Z,1004.95
2022-10-29T09:39:27.184Z,1004.99
2022-10-29T09:40:25.335Z,1005.02
2022-10-29T09:41:25.345Z,1005.03
2022-10-29T09:42:25.335Z,1004.97
2022-10-29T09:43:25.301Z,1005.00
2022-10-29T09:44:25.309Z,1004.99
2022-10-29T09:45:25.300Z,1004.97
2022-10-29T09:46:25.296Z,1004.96
2022-10-29T09:47:25.274Z,1004.98
2022-10-29T09:48:25.273Z,1004.96
2022-10-29T09:49:25.272Z,1004.92
2022-10-29T09:50:25.255Z,1004.90
2022-10-29T09:51:25.230Z,1004.93
2022-10-29T09:52:25.206Z,1004.95
2022-10-29T09:53:25.199Z,1004.95
2022-10-29T09:54:25.250Z,1004.95
2022-10-29T09:55:25.236Z,1004.95
2022-10-29T09:56:25.161Z,1004.96
2022-10-29T09:57:25.162Z,1004.85
2022-10-29T09:58:25.140Z,1004.84
2022-10-29T09:59:25.843Z,1004.87
2022-10-29T10:00:25.122Z,1004.85
2022-10-29T10:01:25.204Z,1004.85
2022-10-29T10:02:25.213Z,1004.86
2022-10-29T10:03:25.097Z,1004.83
2022-10-29T10:04:25.100Z,1004.84
2022-10-29T10:05:25.092Z,1004.84
2022-10-29T10:06:25.076Z,1004.84
2022-10-29T10:07:25.058Z,1004.89
2022-10-29T10:08:25.031Z,1004.85
2022-10-29T10:09:25.052Z,1004.89
2022-10-29T10:10:25.026Z,1004.86
2022-10-29T10:11:25.004Z,1004.89
2022-10-29T10:12:24.992Z,1004.91
2022-10-29T10:13:27.352Z,1004.88
2022-10-29T10:14:24.974Z,1004.88
2022-10-29T10:15:25.038Z,1004.87
2022-10-29T10:16:24.968Z,1004.82
2022-10-29T10:17:24.942Z,1004.82
2022-10-29T10:18:24.944Z,1004.84
2022-10-29T10:19:24.937Z,1004.84
2022-10-29T10:20:24.935Z,1004.85
2022-10-29T10:21:24.899Z,1004.81
2022-10-29T10:22:24.907Z,1004.88
2022-10-29T10:23:24.882Z,1004.77
2022-10-29T10:24:24.911Z,1004.78
2022-10-29T10:25:24.958Z,1004.75
2022-10-29T10:26:24.875Z,1004.80
2022-10-29T10:27:24.826Z,1004.79
2022-10-29T10:28:24.818Z,1004.79
2022-10-29T10:29:24.805Z,1004.78
2022-10-29T10:30:24.795Z,1004.77
2022-10-29T10:31:24.797Z,1004.74
2022-10-29T10:32:24.791Z,1004.74
2022-10-29T10:33:24.786Z,1004.73
2022-10-29T10:34:24.743Z,1004.73
2022-10-29T10:35:24.804Z,1004.76
2022-10-29T10:36:24.767Z,1004.73
2022-10-29T10:37:24.721Z,1004.74
2022-10-29T10:38:24.750Z,1004.75
2022-10-29T10:39:24.717Z,1004.75
2022-10-29T10:40:24.739Z,1004.76
2022-10-29T10:41:24.696Z,1004.75
2022-10-29T10:42:24.672Z,1004.76
2022-10-29T10:43:24.661Z,1004.71
2022-10-29T10:44:24.640Z,1004.68
2022-10-29T10:45:24.774Z,1004.74
2022-10-29T10:46:24.625Z,1004.73
2022-10-29T10:47:24.634Z,1004.72
2022-10-29T10:48:26.623Z,1004.74
2022-10-29T10:49:24.583Z,1004.75
2022-10-29T10:50:24.601Z,1004.71
2022-10-29T10:51:24.574Z,1004.72
2022-10-29T10:52:24.550Z,1004.67
2022-10-29T10:53:24.540Z,1004.69
2022-10-29T10:54:24.615Z,1004.68
2022-10-29T10:55:24.591Z,1004.69
2022-10-29T10:56:24.530Z,1004.68
2022-10-29T10:57:24.515Z,1004.66
2022-10-29T10:58:24.480Z,1004.72
2022-10-29T10:59:24.509Z,1004.69
2022-10-29T11:00:24.476Z,1004.67
2022-10-29T11:01:24.549Z,1004.64
2022-10-29T11:02:24.520Z,1004.61
2022-10-29T11:04:24.451Z,1004.58
2022-10-29T11:05:24.478Z,1004.57
2022-10-29T11:06:24.421Z,1004.57
2022-10-29T11:07:24.406Z,1004.54
2022-10-29T11:08:24.398Z,1004.56
2022-10-29T11:09:24.365Z,1004.52
2022-10-29T11:10:24.370Z,1004.50
2022-10-29T11:11:24.367Z,1004.52
2022-10-29T11:12:24.372Z,1004.55
2022-10-29T11:13:24.329Z,1004.53
2022-10-29T11:14:24.333Z,1004.55
2022-10-29T11:15:24.298Z,1004.56
2022-10-29T11:16:24.301Z,1004.53
2022-10-29T11:17:24.301Z,1004.53
2022-10-29T11:18:24.276Z,1004.57
2022-10-29T11:19:24.278Z,1004.58
2022-10-29T11:20:24.249Z,1004.58
2022-10-29T11:21:24.236Z,1004.58
2022-10-29T11:22:24.260Z,1004.54
2022-10-29T11:23:24.214Z,1004.48
2022-10-29T11:24:24.207Z,1004.50
2022-10-29T11:25:24.253Z,1004.47
2022-10-29T11:26:24.272Z,1004.48
2022-10-29T11:27:24.172Z,1004.45
2022-10-29T11:28:24.180Z,1004.45
2022-10-29T11:29:24.157Z,1004.46
2022-10-29T11:30:24.153Z,1004.39
2022-10-29T11:31:24.119Z,1004.43
2022-10-29T11:32:24.137Z,1004.39
2022-10-29T11:33:24.160Z,1004.40
2022-10-29T11:34:24.119Z,1004.36
2022-10-29T11:35:26.831Z,1004.40
2022-10-29T11:36:24.117Z,1004.40
2022-10-29T11:37:24.118Z,1004.38
2022-10-29T11:38:24.094Z,1004.37
2022-10-29T11:39:24.058Z,1004.37
2022-10-29T11:40:24.070Z,1004.31
2022-10-29T11:41:24.050Z,1004.33
2022-10-29T11:42:24.043Z,1004.35
2022-10-29T11:43:23.996Z,1004.34
2022-10-29T11:44:24.043Z,1004.31
2022-10-29T11:45:24.067Z,1004.33
2022-10-29T11:46:23.968Z,1004.32
2022-10-29T11:47:25.856Z,1004.29
2022-10-29T11:49:23.979Z,1004.29
2022-10-29T11:50:23.932Z,1004.25
2022-10-29T11:51:23.928Z,1004.22
2022-10-29T11:52:24.810Z,1004.24
2022-10-29T11:53:23.909Z,1004.21
2022-10-29T11:54:23.939Z,1004.20
2022-10-29T11:55:24.003Z,1004.22
2022-10-29T11:56:23.876Z,1004.21
2022-10-29T11:57:23.876Z,1004.22
2022-10-29T11:58:23.872Z,1004.21
2022-10-29T11:59:23.824Z,1004.24
2022-10-29T12:00:23.827Z,1004.25
2022-10-29T12:01:23.844Z,1004.25
2022-10-29T12:02:23.845Z,1004.25
2022-10-29T12:03:23.805Z,1004.21
2022-10-29T12:04:24.483Z,1004.20
2022-10-29T12:05:23.788Z,1004.21
2022-10-29T12:06:23.763Z,1004.25
2022-10-29T12:07:23.723Z,1004.29
2022-10-29T12:08:26.309Z,1004.28
2022-10-29T12:09:23.712Z,1004.20
2022-10-29T12:10:23.697Z,1004.26
2022-10-29T12:11:23.702Z,1004.21
2022-10-29T12:12:23.673Z,1004.19
2022-10-29T12:13:23.673Z,1004.16
2022-10-29T12:14:23.666Z,1004.21
2022-10-29T12:15:23.735Z,1004.16
2022-10-29T12:16:23.623Z,1004.12
2022-10-29T12:17:23.670Z,1004.14
2022-10-29T12:18:23.790Z,1004.09
2022-10-29T12:19:23.617Z,1004.11
2022-10-29T12:20:26.717Z,1004.10
2022-10-29T12:21:23.589Z,1004.08
2022-10-29T12:22:23.605Z,1004.10
2022-10-29T12:23:23.565Z,1004.11
2022-10-29T12:24:23.574Z,1004.12
2022-10-29T12:25:23.627Z,1004.08
2022-10-29T12:26:23.518Z,1004.12
2022-10-29T12:27:23.523Z,1004.08
2022-10-29T12:28:23.495Z,1004.07
2022-10-29T12:29:23.492Z,1004.06
2022-10-29T12:30:23.519Z,1004.04
2022-10-29T12:31:23.482Z,1004.02
2022-10-29T12:32:23.470Z,1004.06
2022-10-29T12:33:24.315Z,1004.04
2022-10-29T12:34:24.439Z,1004.04
2022-10-29T12:35:23.461Z,1004.03
2022-10-29T12:36:23.440Z,1004.09
2022-10-29T12:37:23.399Z,1004.03
2022-10-29T12:38:23.408Z,1004.05
2022-10-29T12:39:23.386Z,1004.06
2022-10-29T12:40:23.394Z,1004.09
2022-10-29T12:41:23.446Z,1004.06
2022-10-29T12:42:23.356Z,1004.06
2022-10-29T12:43:23.348Z,1004.08
2022-10-29T12:44:23.329Z,1004.07
2022-10-29T12:45:23.314Z,1004.10
2022-10-29T12:46:23.352Z,1004.07
2022-10-29T12:47:23.301Z,1004.09
2022-10-29T12:48:23.310Z,1004.05
2022-10-29T12:49:23.316Z,1004.05
2022-10-29T12:50:23.257Z,1004.05
2022-10-29T12:51:23.274Z,1004.02
2022-10-29T12:52:23.244Z,1004.04
2022-10-29T12:53:23.231Z,1004.06
2022-10-29T12:54:23.236Z,1004.06
2022-10-29T12:55:23.228Z,1004.05
2022-10-29T12:56:23.225Z,1004.03
2022-10-29T12:57:23.231Z,1004.06
2022-10-29T12:58:23.168Z,1004.04
2022-10-29T12:59:23.161Z,1004.08
2022-10-29T13:00:23.155Z,1004.02
2022-10-29T13:01:23.324Z,1004.06
2022-10-29T13:02:23.272Z,1004.06
2022-10-29T13:03:23.206Z,1004.04
2022-10-29T13:04:23.100Z,1004.05
2022-10-29T13:05:23.112Z,1004.03
2022-10-29T13:06:23.079Z,1004.04
2022-10-29T13:07:23.657Z,1003.94
2022-10-29T13:08:23.062Z,1003.93
2022-10-29T13:09:23.042Z,1003.91
2022-10-29T13:10:23.026Z,1003.89
2022-10-29T13:11:23.019Z,1003.82
2022-10-29T13:12:23.050Z,1003.76
2022-10-29T13:13:23.017Z,1003.76
2022-10-29T13:14:22.992Z,1003.78
2022-10-29T13:15:22.985Z,1003.70
2022-10-29T13:16:22.996Z,1003.68
2022-10-29T13:17:22.972Z,1003.73
2022-10-29T13:18:23.009Z,1003.69
2022-10-29T13:19:22.981Z,1003.67
2022-10-29T13:20:22.946Z,1003.68
2022-10-29T13:21:22.950Z,1003.65
2022-10-29T13:22:22.915Z,1003.66
2022-10-29T13:23:22.939Z,1003.70
2022-10-29T13:24:22.931Z,1003.68
2022-10-29T13:25:22.863Z,1003.63
2022-10-29T13:26:22.859Z,1003.63
2022-10-29T13:27:22.844Z,1003.61
2022-10-29T13:28:22.869Z,1003.57
2022-10-29T13:29:22.857Z,1003.57
2022-10-29T13:30:22.849Z,1003.50
2022-10-29T13:31:22.806Z,1003.49
2022-10-29T13:32:22.802Z,1003.48
2022-10-29T13:33:22.791Z,1003.50
2022-10-29T13:34:22.783Z,1003.48
2022-10-29T13:35:22.789Z,1003.44
2022-10-29T13:36:22.745Z,1003.39
2022-10-29T13:37:22.771Z,1003.40
2022-10-29T13:38:22.844Z,1003.42
2022-10-29T13:39:22.724Z,1003.42
2022-10-29T13:40:22.710Z,1003.44
2022-10-29T13:41:22.708Z,1003.40
2022-10-29T13:42:22.689Z,1003.34
2022-10-29T13:43:22.706Z,1003.37
2022-10-29T13:44:22.661Z,1003.33
2022-10-29T13:45:22.648Z,1003.28
2022-10-29T13:46:22.668Z,1003.25
2022-10-29T13:47:22.677Z,1003.23
2022-10-29T13:48:22.612Z,1003.26
2022-10-29T13:49:22.615Z,1003.28
2022-10-29T13:50:22.619Z,1003.23
2022-10-29T13:51:22.650Z,1003.22
2022-10-29T13:52:22.597Z,1003.24
2022-10-29T13:53:22.572Z,1003.23
2022-10-29T13:54:22.596Z,1003.20
2022-10-29T13:55:22.541Z,1003.21
2022-10-29T13:56:22.526Z,1003.21
2022-10-29T13:57:22.531Z,1003.21
2022-10-29T13:58:22.596Z,1003.20
2022-10-29T13:59:22.544Z,1003.26
2022-10-29T14:00:22.558Z,1003.24
2022-10-29T14:01:22.647Z,1003.27
2022-10-29T14:02:22.665Z,1003.21
2022-10-29T14:03:22.522Z,1003.23
2022-10-29T14:04:22.439Z,1003.24
2022-10-29T14:05:22.476Z,1003.23
2022-10-29T14:06:22.427Z,1003.25
2022-10-29T14:07:22.411Z,1003.26
2022-10-29T14:08:22.408Z,1003.32
2022-10-29T14:09:22.404Z,1003.27
2022-10-29T14:10:22.439Z,1003.26
2022-10-29T14:11:22.390Z,1003.25
2022-10-29T14:12:22.382Z,1003.27
2022-10-29T14:13:24.632Z,1003.25
2022-10-29T14:14:22.339Z,1003.30
2022-10-29T14:15:22.311Z,1003.31
2022-10-29T14:16:22.307Z,1003.35
2022-10-29T14:17:22.307Z,1003.34
2022-10-29T14:18:22.319Z,1003.36
2022-10-29T14:19:22.283Z,1003.32
2022-10-29T14:20:22.249Z,1003.36
2022-10-29T14:21:22.243Z,1003.31
2022-10-29T14:22:22.252Z,1003.33
2022-10-29T14:23:22.229Z,1003.37
2022-10-29T14:24:22.216Z,1003.37
2022-10-29T14:25:22.218Z,1003.39
2022-10-29T14:26:22.204Z,1003.42
2022-10-29T14:27:22.217Z,1003.42
2022-10-29T14:28:22.185Z,1003.44
2022-10-29T14:29:22.244Z,1003.44
2022-10-29T14:30:22.142Z,1003.40
2022-10-29T14:31:22.155Z,1003.37
2022-10-29T14:32:22.158Z,1003.33
2022-10-29T14:33:22.114Z,1003.36
2022-10-29T14:34:22.124Z,1003.39
2022-10-29T14:35:22.086Z,1003.40
2022-10-29T14:36:22.089Z,1003.39
2022-10-29T14:37:22.132Z,1003.38
2022-10-29T14:38:22.107Z,1003.34
2022-10-29T14:39:23.648Z,1003.33
2022-10-29T14:40:22.043Z,1003.36
2022-10-29T14:41:22.104Z,1003.38
2022-10-29T14:42:22.041Z,1003.39
2022-10-29T14:43:22.029Z,1003.37
2022-10-29T14:44:22.054Z,1003.36
2022-10-29T14:45:22.045Z,1003.34
2022-10-29T14:46:21.992Z,1003.31
2022-10-29T14:47:21.966Z,1003.34
2022-10-29T14:48:22.837Z,1003.31
2022-10-29T14:49:21.992Z,1003.33
2022-10-29T14:50:21.960Z,1003.25
2022-10-29T14:51:21.920Z,1003.29
2022-10-29T14:52:21.947Z,1003.28
2022-10-29T14:53:21.894Z,1003.24
2022-10-29T14:54:21.947Z,1003.23
2022-10-29T14:55:21.882Z,1003.24
2022-10-29T14:56:21.858Z,1003.19
2022-10-29T14:57:21.860Z,1003.22
2022-10-29T14:58:21.961Z,1003.18
2022-10-29T14:59:25.017Z,1003.22
2022-10-29T15:00:22.858Z,1003.17
2022-10-29T15:01:21.936Z,1003.10
2022-10-29T15:02:37.460Z,1003.14
2022-10-29T15:03:22.832Z,1003.14
2022-10-29T15:04:21.774Z,1003.14
2022-10-29T15:05:21.778Z,1003.14
2022-10-29T15:06:21.751Z,1003.08
2022-10-29T15:07:21.780Z,1003.13
2022-10-29T15:08:21.790Z,1003.15
2022-10-29T15:09:21.741Z,1003.17
2022-10-29T15:10:21.740Z,1003.11
2022-10-29T15:11:21.699Z,1003.10
2022-10-29T15:12:21.699Z,1003.14
2022-10-29T15:13:21.723Z,1003.09
2022-10-29T15:14:21.711Z,1003.14
2022-10-29T15:15:21.662Z,1003.16
2022-10-29T15:16:21.656Z,1003.18
2022-10-29T15:17:21.652Z,1003.16
2022-10-29T15:18:21.631Z,1003.10
2022-10-29T15:19:21.638Z,1003.12
2022-10-29T15:20:21.657Z,1003.10
2022-10-29T15:21:21.615Z,1003.09
2022-10-29T15:22:21.584Z,1003.06
2022-10-29T15:23:21.582Z,1003.08
2022-10-29T15:24:21.578Z,1003.04
2022-10-29T15:25:21.562Z,1003.10
2022-10-29T15:26:21.587Z,1003.00
2022-10-29T15:27:21.550Z,1003.06
2022-10-29T15:28:21.528Z,1002.99
2022-10-29T15:29:21.586Z,1003.02
2022-10-29T15:30:21.569Z,1003.01
2022-10-29T15:31:21.521Z,1002.99
2022-10-29T15:32:21.502Z,1003.01
2022-10-29T15:33:21.466Z,1003.00
2022-10-29T15:34:21.471Z,1003.01
2022-10-29T15:35:21.452Z,1003.00
2022-10-29T15:36:21.455Z,1003.03
2022-10-29T15:37:21.511Z,1003.05
2022-10-29T15:38:21.438Z,1003.08
2022-10-29T15:39:21.424Z,1003.02
2022-10-29T15:40:21.422Z,1003.07
2022-10-29T15:41:21.390Z,1003.07
2022-10-29T15:42:21.399Z,1003.05
2022-10-29T15:43:21.361Z,1003.04
2022-10-29T15:44:21.352Z,1003.01
2022-10-29T15:45:21.347Z,1003.05
2022-10-29T15:46:21.382Z,1003.07
2022-10-29T15:47:22.327Z,1003.05
2022-10-29T15:48:21.375Z,1003.06
2022-10-29T15:49:21.302Z,1003.06
2022-10-29T15:50:21.304Z,1003.06
2022-10-29T15:51:21.272Z,1003.07
2022-10-29T15:52:21.437Z,1003.05
2022-10-29T15:53:21.274Z,1003.04
2022-10-29T15:54:22.128Z,1003.05
2022-10-29T15:55:26.366Z,1003.05
2022-10-29T15:56:21.621Z,1003.08
2022-10-29T15:57:21.210Z,1003.05
2022-10-29T15:58:21.223Z,1003.02
2022-10-29T15:59:21.184Z,1003.02
2022-10-29T16:00:21.188Z,1002.98
2022-10-29T16:01:21.350Z,1002.98
2022-10-29T16:02:21.412Z,1002.99
2022-10-29T16:03:21.158Z,1002.97
2022-10-29T16:04:21.165Z,1002.97
2022-10-29T16:05:21.127Z,1002.96
2022-10-29T16:06:21.133Z,1002.92
2022-10-29T16:07:21.110Z,1002.99
2022-10-29T16:08:21.090Z,1002.97
2022-10-29T16:09:21.107Z,1002.91
2022-10-29T16:10:21.059Z,1002.90
2022-10-29T16:11:21.108Z,1002.93
2022-10-29T16:12:21.039Z,1002.98
2022-10-29T16:13:21.043Z,1002.94
2022-10-29T16:14:21.035Z,1002.90
2022-10-29T16:15:21.086Z,1002.93
2022-10-29T16:16:21.053Z,1002.93
2022-10-29T16:17:21.032Z,1002.95
2022-10-29T16:18:20.977Z,1002.91
2022-10-29T16:19:20.985Z,1002.93
2022-10-29T16:20:20.971Z,1002.95
2022-10-29T16:21:20.977Z,1002.95
2022-10-29T16:22:20.940Z,1002.97
2022-10-29T16:23:21.000Z,1002.95
2022-10-29T16:24:20.911Z,1002.92
2022-10-29T16:25:20.916Z,1002.95
2022-10-29T16:26:20.887Z,1002.92
2022-10-29T16:27:20.922Z,1002.96
2022-10-29T16:28:20.914Z,1002.92
2022-10-29T16:29:20.889Z,1002.95
2022-10-29T16:30:20.885Z,1002.97
2022-10-29T16:31:20.861Z,1003.01
2022-10-29T16:32:20.877Z,1002.95
2022-10-29T16:33:20.872Z,1002.97
2022-10-29T16:34:23.800Z,1002.96
2022-10-29T16:35:20.823Z,1002.91
2022-10-29T16:36:20.827Z,1002.96
2022-10-29T16:37:20.781Z,1002.96
2022-10-29T16:38:20.776Z,1002.91
2022-10-29T16:39:20.769Z,1002.86
2022-10-29T16:40:20.745Z,1002.91
2022-10-29T16:41:21.019Z,1002.93
2022-10-29T16:42:20.721Z,1002.85
2022-10-29T16:43:20.753Z,1002.85